Time;durP1;ratioP1;P1;durP2;ratioP2;P2;SDS_P1;SDS_P2;PMS_P1;PMS_P2;Temp;Humidity;BMP_temperature;BMP_pressure;BME280_temperature;BME280_humidity;BME280_pressure;Samples;Min_cycle;Max_cycle;Signal;HPM_P1;HPM_P2
2023/09/16 00:01:08;;;;;;;30.85;8.88;;;22.20;93.00;;;;;;5070274;28;20465;-56
2023/09/16 00:03:35;;;;;;;27.00;9.00;;;22.20;93.30;;;;;;5068434;28;20028;-56
2023/09/16 00:06:01;;;;;;;23.55;9.13;;;22.20;93.10;;;;;;5053459;28;20104;-55
2023/09/16 00:08:26;;;;;;;22.45;8.57;;;22.20;93.10;;;;;;5069442;28;20040;-56
2023/09/16 00:10:52;;;;;;;29.85;9.00;;;22.20;93.10;;;;;;5062920;28;20033;-56
2023/09/16 00:13:18;;;;;;;23.83;8.13;;;22.20;93.10;;;;;;5050068;28;20397;-52
2023/09/16 00:15:48;;;;;;;26.05;8.75;;;22.10;93.10;;;;;;5067699;28;20041;-52
2023/09/16 00:18:15;;;;;;;17.45;8.10;;;22.10;93.10;;;;;;5056594;28;20119;-52
2023/09/16 00:20:41;;;;;;;18.60;8.32;;;22.10;93.10;;;;;;5087479;28;20055;-52
2023/09/16 00:23:06;;;;;;;26.02;8.63;;;22.10;93.10;;;;;;5069732;28;20041;-52
2023/09/16 00:25:32;;;;;;;23.42;7.93;;;22.10;93.10;;;;;;5085079;28;20492;-53
2023/09/16 00:27:58;;;;;;;16.15;8.15;;;22.10;93.10;;;;;;5087666;28;20319;-52
2023/09/16 00:30:24;;;;;;;20.65;8.13;;;22.10;93.10;;;;;;5087418;28;20094;-52
2023/09/16 00:32:49;;;;;;;20.45;8.07;;;22.10;93.20;;;;;;5086349;28;20032;-52
2023/09/16 00:35:15;;;;;;;19.10;8.25;;;22.00;93.20;;;;;;5069983;28;20036;-52
2023/09/16 00:37:43;;;;;;;18.90;8.27;;;22.00;93.20;;;;;;5069619;28;20096;-52
2023/09/16 00:40:09;;;;;;;14.25;7.85;;;22.00;93.20;;;;;;5067156;28;20039;-53
2023/09/16 00:42:38;;;;;;;17.63;8.20;;;21.90;93.20;;;;;;5086444;28;20056;-52
2023/09/16 00:45:04;;;;;;;20.27;8.20;;;21.90;93.20;;;;;;5070920;28;20063;-52
2023/09/16 00:47:30;;;;;;;15.07;8.25;;;22.00;93.20;;;;;;5069192;28;20028;-52
2023/09/16 00:49:57;;;;;;;19.35;7.80;;;21.90;93.20;;;;;;5087128;28;20052;-52
2023/09/16 00:52:22;;;;;;;17.60;7.63;;;21.90;93.20;;;;;;5069256;28;20051;-52
2023/09/16 00:54:51;;;;;;;17.48;7.78;;;21.90;93.30;;;;;;5066868;28;20040;-52
2023/09/16 00:57:17;;;;;;;16.17;7.68;;;21.80;93.30;;;;;;5069568;28;20120;-52
2023/09/16 00:59:42;;;;;;;16.45;7.47;;;21.80;93.30;;;;;;5069011;28;20049;-52
2023/09/16 01:02:09;;;;;;;12.30;7.05;;;21.80;93.30;;;;;;5050144;28;20032;-51
2023/09/16 01:04:35;;;;;;;15.45;7.25;;;21.80;93.40;;;;;;5069205;28;20039;-52
2023/09/16 01:07:02;;;;;;;15.18;7.70;;;21.80;93.30;;;;;;5068858;28;20055;-52
2023/09/16 01:09:28;;;;;;;18.00;7.20;;;21.80;93.40;;;;;;5068307;28;20165;-52
2023/09/16 01:11:54;;;;;;;13.70;7.05;;;21.80;93.40;;;;;;5052306;28;20088;-52
2023/09/16 01:14:20;;;;;;;15.00;7.63;;;21.80;93.40;;;;;;5052236;28;20039;-52
2023/09/16 01:16:46;;;;;;;15.48;7.53;;;21.80;93.40;;;;;;5067730;28;20090;-52
2023/09/16 01:19:46;;;;;;;12.07;7.15;;;21.70;93.40;;;;;;5068711;28;20036;-53
2023/09/16 01:22:11;;;;;;;15.50;7.07;;;21.70;93.40;;;;;;5027205;28;20123;-52
2023/09/16 01:24:40;;;;;;;14.20;7.45;;;21.70;93.50;;;;;;5067510;28;20044;-52
2023/09/16 01:27:07;;;;;;;14.73;7.43;;;21.70;93.50;;;;;;5086483;28;20033;-52
2023/09/16 01:29:32;;;;;;;17.58;7.13;;;21.70;93.50;;;;;;5051982;28;20424;-52
2023/09/16 01:32:01;;;;;;;9.02;6.35;;;21.70;93.60;;;;;;5067184;28;20032;-52
2023/09/16 01:34:40;;;;;;;10.88;7.43;;;21.60;93.80;;;;;;5068654;28;20040;-52
2023/09/16 01:37:06;;;;;;;10.32;6.55;;;21.60;93.50;;;;;;5052488;28;20040;-51
2023/09/16 01:39:32;;;;;;;17.70;7.00;;;21.60;93.50;;;;;;5068435;28;20043;-52
2023/09/16 01:41:58;;;;;;;12.23;6.60;;;21.60;93.50;;;;;;5051795;28;20067;-52
2023/09/16 01:44:24;;;;;;;10.30;7.18;;;21.60;93.50;;;;;;5050487;28;20037;-52
2023/09/16 01:46:53;;;;;;;10.85;6.90;;;21.60;93.50;;;;;;5050622;28;20036;-52
2023/09/16 01:49:19;;;;;;;13.88;7.30;;;21.60;93.60;;;;;;5068831;28;20083;-52
2023/09/16 01:51:44;;;;;;;12.57;7.03;;;21.60;93.60;;;;;;5066998;28;20036;-52
2023/09/16 01:54:10;;;;;;;14.00;7.82;;;21.50;93.60;;;;;;5068476;28;20040;-52
2023/09/16 01:56:36;;;;;;;11.18;6.20;;;21.50;93.60;;;;;;5051814;28;20058;-52
2023/09/16 01:59:01;;;;;;;11.50;6.60;;;21.50;93.60;;;;;;5084913;28;20042;-52
2023/09/16 02:01:27;;;;;;;8.48;6.63;;;21.50;93.70;;;;;;5086278;28;20147;-52
2023/09/16 02:03:52;;;;;;;14.00;6.68;;;21.50;93.70;;;;;;5086162;28;20037;-52
2023/09/16 02:06:18;;;;;;;12.85;6.47;;;21.50;93.70;;;;;;5050683;28;20555;-52
2023/09/16 02:08:43;;;;;;;13.10;7.35;;;21.50;93.70;;;;;;5066924;28;20037;-53
2023/09/16 02:11:09;;;;;;;17.55;6.85;;;21.50;93.60;;;;;;5086004;28;20028;-52
2023/09/16 02:13:35;;;;;;;13.15;6.72;;;21.50;93.60;;;;;;5085001;28;20043;-53
2023/09/16 02:16:01;;;;;;;12.82;7.03;;;21.50;93.60;;;;;;5051727;28;20056;-52
2023/09/16 02:18:27;;;;;;;15.13;6.97;;;21.50;93.60;;;;;;5084689;28;20036;-52
2023/09/16 02:20:52;;;;;;;11.02;6.82;;;21.50;93.70;;;;;;5084745;28;20044;-52
2023/09/16 02:23:18;;;;;;;15.88;6.43;;;21.50;93.70;;;;;;5085964;28;20041;-52
2023/09/16 02:25:44;;;;;;;11.07;6.47;;;21.40;93.60;;;;;;5067915;28;20036;-52
2023/09/16 02:28:09;;;;;;;12.52;6.60;;;21.40;93.70;;;;;;5050028;28;20070;-52
2023/09/16 02:30:35;;;;;;;13.80;7.05;;;21.40;93.70;;;;;;5066769;28;20035;-52
2023/09/16 02:33:00;;;;;;;9.38;7.07;;;21.40;93.70;;;;;;5069928;28;20078;-52
2023/09/16 02:35:26;;;;;;;8.93;6.35;;;21.40;93.70;;;;;;5088542;28;20593;-52
2023/09/16 02:37:51;;;;;;;10.80;6.63;;;21.40;93.70;;;;;;5089692;28;20044;-52
2023/09/16 02:40:17;;;;;;;8.38;6.50;;;21.40;93.70;;;;;;5071542;28;20063;-52
2023/09/16 02:42:43;;;;;;;9.45;6.50;;;21.40;93.80;;;;;;5088396;28;20032;-52
2023/09/16 02:45:08;;;;;;;10.55;6.50;;;21.40;93.80;;;;;;5055162;28;20104;-52
2023/09/16 02:47:34;;;;;;;8.77;6.10;;;21.40;93.80;;;;;;5089250;28;20041;-52
2023/09/16 02:50:00;;;;;;;11.27;6.38;;;21.40;93.80;;;;;;5067093;28;20044;-52
2023/09/16 02:52:26;;;;;;;8.35;6.57;;;21.40;93.80;;;;;;5060988;28;20040;-52
2023/09/16 02:54:51;;;;;;;11.25;6.70;;;21.40;93.90;;;;;;5069536;28;20376;-52
2023/09/16 02:57:17;;;;;;;9.10;6.30;;;21.30;93.90;;;;;;5036486;28;20040;-52
2023/09/16 02:59:42;;;;;;;13.23;6.57;;;21.30;93.90;;;;;;5087789;28;20507;-52
2023/09/16 03:02:08;;;;;;;10.48;6.38;;;21.40;94.00;;;;;;5071180;28;20028;-52
2023/09/16 03:04:33;;;;;;;7.88;6.30;;;21.30;94.00;;;;;;5068626;28;20029;-52
2023/09/16 03:06:59;;;;;;;7.25;6.47;;;21.30;94.10;;;;;;5054521;28;20041;-52
2023/09/16 03:09:25;;;;;;;10.40;6.47;;;21.30;94.10;;;;;;5089353;28;20036;-52
2023/09/16 03:11:50;;;;;;;10.23;6.90;;;21.30;94.10;;;;;;5087915;28;20043;-53
2023/09/16 03:14:16;;;;;;;11.27;6.72;;;21.30;94.10;;;;;;5053072;28;20114;-52
2023/09/16 03:16:42;;;;;;;9.65;6.35;;;21.30;94.10;;;;;;5053212;28;20028;-52
2023/09/16 03:19:08;;;;;;;8.32;6.50;;;21.30;94.10;;;;;;5069752;28;20114;-52
2023/09/16 03:21:33;;;;;;;9.82;7.28;;;21.30;94.10;;;;;;5052112;28;20028;-52
2023/09/16 03:23:59;;;;;;;8.57;7.13;;;21.30;94.10;;;;;;5087795;28;20466;-52
2023/09/16 03:26:25;;;;;;;7.65;6.85;;;21.30;94.00;;;;;;5053210;28;20039;-52
2023/09/16 03:28:52;;;;;;;7.55;6.57;;;21.30;94.10;;;;;;5088729;28;20037;-52
2023/09/16 03:31:18;;;;;;;8.60;6.78;;;21.30;94.40;;;;;;5070777;28;20037;-52
2023/09/16 03:33:44;;;;;;;7.75;6.80;;;21.30;94.10;;;;;;5068651;28;20040;-52
2023/09/16 03:36:09;;;;;;;8.68;6.80;;;21.30;94.10;;;;;;5070715;28;20028;-52
2023/09/16 03:38:35;;;;;;;10.07;7.63;;;21.30;94.40;;;;;;5070641;28;20025;-52
2023/09/16 03:41:00;;;;;;;7.43;6.65;;;21.30;94.10;;;;;;5086994;28;20088;-52
2023/09/16 03:43:27;;;;;;;11.35;7.07;;;21.30;94.20;;;;;;5069810;28;20047;-53
2023/09/16 03:45:52;;;;;;;8.90;7.55;;;21.30;94.20;;;;;;5070272;28;20025;-53
2023/09/16 03:48:18;;;;;;;10.63;7.90;;;21.30;94.30;;;;;;5052582;28;20072;-52
2023/09/16 03:50:44;;;;;;;11.30;7.65;;;21.30;94.20;;;;;;5070359;28;20437;-52
2023/09/16 03:53:10;;;;;;;11.15;7.78;;;21.30;94.20;;;;;;5070454;28;20029;-52
2023/09/16 03:55:36;;;;;;;7.95;7.13;;;21.30;94.30;;;;;;5048957;28;20063;-52
2023/09/16 03:58:02;;;;;;;7.95;7.25;;;21.30;94.30;;;;;;5050351;28;20047;-52
2023/09/16 04:00:28;;;;;;;8.15;7.38;;;21.30;94.30;;;;;;5067963;28;20501;-52
2023/09/16 04:02:53;;;;;;;10.05;7.18;;;21.20;94.30;;;;;;5061430;28;20429;-52
2023/09/16 04:05:19;;;;;;;10.73;7.15;;;21.20;94.30;;;;;;5070103;28;20044;-52
2023/09/16 04:07:44;;;;;;;18.52;7.32;;;21.20;94.30;;;;;;5069625;28;20055;-52
2023/09/16 04:10:10;;;;;;;9.27;7.55;;;21.20;94.40;;;;;;5087017;28;20041;-52
2023/09/16 04:12:36;;;;;;;10.38;7.68;;;21.20;94.40;;;;;;5088336;28;20070;-52
2023/09/16 04:15:02;;;;;;;9.77;7.88;;;21.20;94.40;;;;;;5070105;28;20028;-52
2023/09/16 04:17:28;;;;;;;8.65;7.45;;;21.20;94.40;;;;;;5035421;28;20033;-52
2023/09/16 04:19:54;;;;;;;8.77;7.28;;;21.20;94.50;;;;;;5048257;28;20092;-52
2023/09/16 04:22:19;;;;;;;10.98;7.60;;;21.20;94.50;;;;;;5065975;28;20044;-52
2023/09/16 04:24:45;;;;;;;9.85;7.35;;;21.20;94.40;;;;;;5049205;28;20037;-52
2023/09/16 04:27:11;;;;;;;8.10;7.32;;;21.10;94.40;;;;;;5049713;28;20035;-52
2023/09/16 04:29:36;;;;;;;8.40;7.45;;;21.10;94.50;;;;;;5049618;28;20101;-52
2023/09/16 04:32:02;;;;;;;11.55;7.20;;;21.10;94.50;;;;;;5049630;28;20033;-52
2023/09/16 04:34:28;;;;;;;12.05;7.88;;;21.10;94.50;;;;;;5048883;28;20067;-52
2023/09/16 04:36:55;;;;;;;11.45;8.32;;;21.10;94.60;;;;;;5048001;28;20037;-52
2023/09/16 04:39:23;;;;;;;9.93;8.75;;;21.10;94.60;;;;;;5065639;28;20116;-52
2023/09/16 04:41:53;;;;;;;9.88;7.90;;;21.10;94.50;;;;;;5067107;28;20037;-52
2023/09/16 04:44:22;;;;;;;13.38;8.48;;;21.10;94.50;;;;;;5050337;28;20025;-52
2023/09/16 04:46:48;;;;;;;13.80;8.40;;;21.10;94.60;;;;;;5067447;28;20039;-52
2023/09/16 04:49:13;;;;;;;9.25;7.72;;;21.10;94.50;;;;;;5049297;28;20065;-52
2023/09/16 04:51:39;;;;;;;15.75;8.43;;;21.10;94.60;;;;;;5067258;28;20059;-52
2023/09/16 04:54:05;;;;;;;12.43;8.43;;;21.10;94.50;;;;;;5066953;28;20060;-51
2023/09/16 04:56:30;;;;;;;13.50;8.20;;;21.10;94.50;;;;;;5049272;28;20049;-52
2023/09/16 04:58:56;;;;;;;11.13;8.05;;;21.10;94.50;;;;;;5049038;28;20515;-52
2023/09/16 05:01:22;;;;;;;9.10;8.20;;;21.10;94.50;;;;;;5066955;28;20087;-52
2023/09/16 05:03:47;;;;;;;8.85;7.78;;;21.00;94.50;;;;;;5066951;28;20511;-52
2023/09/16 05:06:13;;;;;;;11.55;8.25;;;21.00;94.50;;;;;;5048935;28;20067;-52
2023/09/16 05:08:38;;;;;;;15.10;8.60;;;21.00;94.50;;;;;;5048961;28;20036;-52
2023/09/16 05:11:04;;;;;;;12.65;8.40;;;21.10;94.50;;;;;;5048721;28;20123;-52
2023/09/16 05:13:29;;;;;;;13.65;8.68;;;21.00;94.50;;;;;;5066857;28;20099;-52
2023/09/16 05:15:55;;;;;;;11.70;8.02;;;21.00;94.60;;;;;;5049033;28;20052;-52
2023/09/16 05:18:20;;;;;;;11.20;8.25;;;21.00;94.60;;;;;;5066449;28;20044;-52
2023/09/16 05:20:49;;;;;;;12.35;8.10;;;21.00;94.60;;;;;;5048565;28;20033;-52
2023/09/16 05:23:15;;;;;;;9.32;7.80;;;21.00;94.60;;;;;;5048556;28;20040;-52
2023/09/16 05:25:48;;;;;;;9.32;7.72;;;21.00;94.50;;;;;;5048649;28;20033;-52
2023/09/16 05:28:14;;;;;;;10.50;8.05;;;20.90;94.50;;;;;;5050636;28;20037;-53
2023/09/16 05:30:39;;;;;;;7.80;6.95;;;21.00;94.50;;;;;;5078518;28;20036;-53
2023/09/16 05:33:05;;;;;;;11.02;7.60;;;21.00;94.50;;;;;;5051298;28;20091;-53
2023/09/16 05:35:30;;;;;;;11.13;7.60;;;20.90;94.40;;;;;;5068115;28;20472;-53
2023/09/16 05:37:57;;;;;;;9.30;7.35;;;20.90;94.40;;;;;;5084904;28;20108;-52
2023/09/16 05:40:23;;;;;;;14.05;7.97;;;20.90;94.40;;;;;;5068015;28;20051;-53
2023/09/16 05:42:50;;;;;;;9.15;6.88;;;20.90;94.40;;;;;;5068466;28;20488;-53
2023/09/16 05:45:16;;;;;;;9.00;7.38;;;20.90;94.50;;;;;;5068488;28;20523;-53
2023/09/16 05:47:42;;;;;;;10.60;7.50;;;20.90;94.50;;;;;;5086458;28;20025;-53
2023/09/16 05:50:08;;;;;;;8.32;6.90;;;20.90;94.50;;;;;;5050412;28;20075;-52
2023/09/16 05:52:33;;;;;;;20.35;8.02;;;20.80;94.50;;;;;;5049976;28;20506;-52
2023/09/16 05:54:59;;;;;;;10.30;7.63;;;20.90;94.50;;;;;;5067642;28;20037;-53
2023/09/16 05:57:24;;;;;;;9.15;7.45;;;20.90;94.50;;;;;;5067365;28;20033;-53
2023/09/16 05:59:50;;;;;;;14.13;7.60;;;20.90;94.50;;;;;;5085957;28;20040;-53
2023/09/16 06:02:16;;;;;;;10.15;6.70;;;20.80;94.50;;;;;;5050773;28;20044;-53
2023/09/16 06:04:42;;;;;;;14.35;7.63;;;20.80;94.50;;;;;;5050343;28;20039;-53
2023/09/16 06:07:07;;;;;;;9.23;7.55;;;20.80;94.50;;;;;;5048578;28;20106;-52
2023/09/16 06:09:33;;;;;;;10.07;7.75;;;20.80;94.50;;;;;;5070160;28;20033;-52
2023/09/16 06:11:58;;;;;;;10.82;7.20;;;20.80;94.50;;;;;;5070149;28;20037;-53
2023/09/16 06:14:24;;;;;;;11.27;7.28;;;20.80;94.50;;;;;;5051966;28;20076;-53
2023/09/16 06:16:50;;;;;;;8.23;7.13;;;20.80;94.50;;;;;;5070126;28;20091;-52
2023/09/16 06:19:15;;;;;;;14.60;7.20;;;20.80;94.50;;;;;;5052127;28;20048;-53
2023/09/16 06:21:41;;;;;;;13.40;7.72;;;20.80;94.50;;;;;;5052036;28;20025;-53
2023/09/16 06:24:07;;;;;;;14.45;7.70;;;20.80;94.50;;;;;;5052129;28;20040;-53
2023/09/16 06:26:32;;;;;;;15.27;8.13;;;20.80;94.60;;;;;;5052031;28;20033;-53
2023/09/16 06:28:58;;;;;;;20.20;7.82;;;20.70;94.60;;;;;;5052073;28;20059;-53
2023/09/16 06:31:23;;;;;;;16.77;8.02;;;20.70;94.60;;;;;;5069837;28;20036;-53
2023/09/16 06:33:49;;;;;;;25.30;8.38;;;20.70;94.60;;;;;;5069685;28;20040;-53
2023/09/16 06:36:15;;;;;;;13.40;8.13;;;20.80;94.60;;;;;;5051681;28;20033;-53
2023/09/16 06:38:40;;;;;;;17.80;7.85;;;20.70;94.60;;;;;;5051902;28;20041;-52
2023/09/16 06:41:06;;;;;;;15.90;7.40;;;20.80;94.50;;;;;;5051594;28;20124;-52
2023/09/16 06:43:31;;;;;;;14.95;8.00;;;20.80;94.60;;;;;;5069485;28;20041;-53
2023/09/16 06:45:57;;;;;;;17.88;7.88;;;20.70;94.60;;;;;;5069610;28;20029;-53
2023/09/16 06:48:23;;;;;;;13.07;7.70;;;20.80;94.50;;;;;;5051639;28;20071;-53
2023/09/16 06:50:50;;;;;;;14.52;7.50;;;20.80;94.80;;;;;;5051220;28;20049;-53
2023/09/16 06:53:15;;;;;;;11.45;7.43;;;20.80;94.60;;;;;;5051425;28;20041;-53
2023/09/16 06:55:41;;;;;;;14.60;7.45;;;20.70;94.50;;;;;;5069041;28;20551;-52
2023/09/16 06:58:07;;;;;;;12.38;7.65;;;20.80;94.60;;;;;;5069662;28;20052;-52
2023/09/16 07:00:33;;;;;;;13.25;6.53;;;20.70;94.50;;;;;;5069232;28;20044;-53
2023/09/16 07:02:59;;;;;;;12.25;7.45;;;20.80;94.60;;;;;;5055789;28;20028;-53
2023/09/16 07:05:24;;;;;;;11.75;7.18;;;20.80;94.60;;;;;;5068722;28;20036;-53
2023/09/16 07:07:52;;;;;;;9.20;6.93;;;20.80;94.50;;;;;;5051151;28;20033;-53
2023/09/16 07:10:18;;;;;;;11.70;7.15;;;20.70;94.50;;;;;;5051492;28;20049;-53
2023/09/16 07:12:44;;;;;;;10.10;7.10;;;20.70;94.50;;;;;;5065302;28;20037;-53
2023/09/16 07:15:09;;;;;;;12.57;7.05;;;20.80;94.50;;;;;;5089064;28;20051;-53
2023/09/16 07:17:35;;;;;;;11.93;7.53;;;20.70;94.50;;;;;;5089075;28;20092;-53
2023/09/16 07:20:01;;;;;;;12.35;6.53;;;20.80;94.40;;;;;;5087499;28;20047;-51
2023/09/16 07:22:26;;;;;;;12.68;6.82;;;20.80;94.40;;;;;;5080372;28;20500;-53
2023/09/16 07:24:52;;;;;;;10.43;6.82;;;20.80;94.50;;;;;;5055809;28;20059;-52
2023/09/16 07:27:18;;;;;;;8.98;7.13;;;20.80;94.50;;;;;;5088791;28;20032;-53
2023/09/16 07:29:43;;;;;;;10.23;6.82;;;20.80;94.50;;;;;;5087636;28;20880;-53
2023/09/16 07:32:09;;;;;;;11.98;6.22;;;20.80;94.50;;;;;;5053044;28;20443;-53
2023/09/16 07:34:34;;;;;;;12.60;7.05;;;20.80;94.50;;;;;;5070445;28;20040;-51
2023/09/16 07:37:01;;;;;;;11.48;6.90;;;20.80;94.50;;;;;;5070619;28;20032;-53
2023/09/16 07:39:27;;;;;;;6.63;5.85;;;20.80;94.40;;;;;;5087041;28;20049;-53
2023/09/16 07:41:52;;;;;;;8.98;6.03;;;20.90;94.30;;;;;;5070472;28;20048;-53
2023/09/16 07:44:18;;;;;;;12.80;6.70;;;20.80;94.20;;;;;;5068406;28;20041;-52
2023/09/16 07:46:43;;;;;;;11.27;6.43;;;20.90;94.20;;;;;;5086142;28;20029;-53
2023/09/16 07:49:09;;;;;;;13.48;6.38;;;20.90;94.20;;;;;;5087313;28;20040;-52
2023/09/16 07:51:35;;;;;;;20.13;6.68;;;20.90;94.20;;;;;;5052935;28;20036;-52
2023/09/16 07:54:01;;;;;;;15.43;6.78;;;20.90;94.10;;;;;;5063199;28;20098;-53
2023/09/16 07:56:28;;;;;;;9.60;6.35;;;20.90;94.00;;;;;;5069082;28;20032;-53
2023/09/16 07:58:54;;;;;;;11.63;6.55;;;20.90;94.30;;;;;;5086236;28;20039;-53
2023/09/16 08:01:19;;;;;;;13.77;6.53;;;21.00;94.10;;;;;;5084878;28;20120;-53
2023/09/16 08:03:45;;;;;;;10.15;6.07;;;21.00;94.10;;;;;;5066162;28;20039;-52
2023/09/16 08:06:11;;;;;;;10.85;5.88;;;21.00;94.10;;;;;;5068976;28;20504;-52
2023/09/16 08:08:37;;;;;;;16.20;7.00;;;21.00;94.00;;;;;;5065007;28;20041;-53
2023/09/16 08:11:02;;;;;;;17.08;6.63;;;21.00;94.00;;;;;;5064622;28;20039;-53
2023/09/16 08:13:28;;;;;;;17.98;6.50;;;21.00;94.00;;;;;;5065289;28;20177;-52
2023/09/16 08:15:54;;;;;;;22.42;6.72;;;21.00;94.00;;;;;;5065245;28;20037;-53
2023/09/16 08:18:20;;;;;;;20.40;7.13;;;21.00;94.00;;;;;;5064618;28;20096;-52
2023/09/16 08:20:45;;;;;;;16.00;7.90;;;20.90;93.90;;;;;;5084585;28;20071;-53
2023/09/16 08:23:12;;;;;;;15.85;8.27;;;20.90;94.10;;;;;;5064377;28;20107;-53
2023/09/16 08:25:37;;;;;;;23.23;8.18;;;21.00;94.50;;;;;;5082133;28;20031;-53
2023/09/16 08:28:03;;;;;;;29.65;9.63;;;21.00;94.60;;;;;;5049335;28;20215;-53
2023/09/16 08:30:28;;;;;;;34.45;9.40;;;21.00;94.50;;;;;;5066415;28;20492;-53
2023/09/16 08:32:54;;;;;;;31.17;9.07;;;21.00;94.60;;;;;;5085822;28;20064;-52
2023/09/16 08:35:21;;;;;;;34.17;9.20;;;21.00;94.60;;;;;;5083309;28;20037;-53
2023/09/16 08:37:46;;;;;;;43.53;9.57;;;21.00;94.80;;;;;;5084661;28;20247;-52
2023/09/16 08:40:12;;;;;;;41.30;9.65;;;21.10;94.30;;;;;;5067698;28;20441;-53
2023/09/16 08:42:40;;;;;;;42.75;9.57;;;21.10;94.20;;;;;;5067538;28;20146;-52
2023/09/16 08:45:06;;;;;;;41.83;10.80;;;21.10;94.20;;;;;;5068648;28;20040;-53
2023/09/16 08:47:43;;;;;;;39.42;9.80;;;21.20;94.20;;;;;;5051017;28;20044;-52
2023/09/16 08:50:09;;;;;;;36.28;8.98;;;21.20;94.10;;;;;;5069037;28;20056;-52
2023/09/16 08:53:05;;;;;;;48.47;9.93;;;21.20;94.00;;;;;;5085145;28;20514;-52
2023/09/16 08:55:32;;;;;;;26.60;8.97;;;21.30;93.90;;;;;;5081664;28;20048;-52
2023/09/16 08:58:03;;;;;;;46.53;9.30;;;21.30;93.60;;;;;;5061717;28;20047;-52
2023/09/16 09:00:29;;;;;;;51.08;10.38;;;21.30;93.40;;;;;;5082875;28;20128;-52
2023/09/16 09:02:54;;;;;;;51.42;10.57;;;21.40;93.50;;;;;;5062630;28;20029;-52
2023/09/16 09:05:21;;;;;;;51.92;10.85;;;21.40;93.30;;;;;;5065841;28;20055;-52
2023/09/16 09:07:47;;;;;;;66.35;11.07;;;21.50;93.20;;;;;;5067621;28;20029;-52
2023/09/16 09:10:12;;;;;;;54.08;10.93;;;21.50;93.10;;;;;;5067870;28;20036;-53
2023/09/16 09:12:39;;;;;;;77.10;12.65;;;21.50;93.10;;;;;;5081661;28;20044;-53
2023/09/16 09:15:07;;;;;;;73.43;12.57;;;21.50;93.00;;;;;;5049519;28;20552;-53
2023/09/16 09:17:39;;;;;;;86.95;12.45;;;21.60;93.00;;;;;;5060331;28;20033;-52
2023/09/16 09:20:07;;;;;;;93.40;13.05;;;21.60;93.00;;;;;;5050791;28;20048;-53
2023/09/16 09:22:33;;;;;;;78.88;11.90;;;21.60;93.00;;;;;;5053474;28;20111;-50
2023/09/16 09:24:59;;;;;;;66.05;11.15;;;21.60;93.00;;;;;;5053966;28;20056;-52
2023/09/16 09:27:24;;;;;;;83.22;12.75;;;21.70;93.10;;;;;;5058328;28;20044;-52
2023/09/16 09:29:50;;;;;;;71.53;12.15;;;21.70;93.20;;;;;;5068284;28;20040;-52
2023/09/16 09:32:15;;;;;;;85.75;13.80;;;21.70;93.40;;;;;;5047761;28;20044;-53
2023/09/16 09:34:41;;;;;;;93.05;14.80;;;21.80;93.60;;;;;;5061919;28;20045;-53
2023/09/16 09:37:15;;;;;;;87.70;14.68;;;21.80;93.60;;;;;;5060143;28;20045;-53
2023/09/16 09:39:40;;;;;;;91.45;14.20;;;21.80;93.50;;;;;;5055561;28;20096;-53
2023/09/16 09:42:06;;;;;;;124.40;17.42;;;21.80;93.60;;;;;;5082045;28;20035;-53
2023/09/16 09:44:32;;;;;;;139.02;20.15;;;21.90;93.70;;;;;;5076132;28;20048;-52
2023/09/16 09:46:58;;;;;;;112.15;18.67;;;21.90;93.80;;;;;;5078862;28;20033;-53
2023/09/16 09:49:23;;;;;;;114.47;18.65;;;22.00;93.80;;;;;;5045096;28;20481;-53
2023/09/16 09:51:49;;;;;;;114.20;18.02;;;22.00;93.80;;;;;;5059455;28;20395;-53
2023/09/16 09:54:16;;;;;;;135.40;19.00;;;22.00;93.80;;;;;;5049211;28;20047;-53
2023/09/16 09:56:42;;;;;;;143.63;23.30;;;22.10;94.10;;;;;;5061962;28;20040;-52
2023/09/16 09:59:07;;;;;;;172.80;23.05;;;22.20;94.20;;;;;;5057799;28;20124;-53
2023/09/16 10:01:33;;;;;;;178.70;24.33;;;22.20;94.20;;;;;;5049121;28;20040;-53
2023/09/16 10:04:02;;;;;;;118.57;20.35;;;22.30;94.20;;;;;;5061473;28;20044;-53
2023/09/16 10:06:27;;;;;;;449.95;45.63;;;22.30;94.30;;;;;;5079077;28;20036;-53
2023/09/16 10:08:53;;;;;;;148.68;21.27;;;22.30;94.20;;;;;;5062951;28;20047;-52
2023/09/16 10:11:20;;;;;;;234.40;28.25;;;22.40;94.30;;;;;;5064081;28;20047;-52
2023/09/16 10:13:47;;;;;;;197.20;25.33;;;22.40;94.20;;;;;;5071156;28;20051;-53
2023/09/16 10:16:13;;;;;;;170.90;24.85;;;22.40;94.40;;;;;;5046765;28;20059;-53
2023/09/16 10:18:38;;;;;;;168.82;22.65;;;22.50;94.40;;;;;;5063859;28;20036;-53
2023/09/16 10:21:06;;;;;;;139.07;20.10;;;22.50;94.40;;;;;;5044681;28;20392;-53
2023/09/16 10:23:31;;;;;;;161.02;20.05;;;22.50;94.10;;;;;;5071664;28;20033;-53
2023/09/16 10:25:57;;;;;;;97.97;17.52;;;22.50;94.00;;;;;;5046538;28;20031;-53
2023/09/16 10:28:22;;;;;;;108.43;16.05;;;22.60;93.80;;;;;;5064727;28;20058;-53
2023/09/16 10:30:48;;;;;;;120.95;15.60;;;22.70;93.60;;;;;;5063405;28;20051;-53
2023/09/16 10:33:14;;;;;;;119.30;15.90;;;22.70;93.40;;;;;;5042208;28;20033;-54
2023/09/16 10:35:41;;;;;;;99.75;15.82;;;22.70;93.30;;;;;;5028551;28;20516;-52
2023/09/16 10:38:08;;;;;;;116.63;14.13;;;22.70;93.20;;;;;;5070665;28;20041;-53
2023/09/16 10:40:33;;;;;;;93.60;14.43;;;22.80;93.00;;;;;;5082079;28;20028;-53
2023/09/16 10:43:00;;;;;;;106.55;14.40;;;22.80;93.00;;;;;;5083243;28;20063;-53
2023/09/16 10:45:26;;;;;;;80.55;12.77;;;22.80;93.00;;;;;;5048409;28;20039;-53
2023/09/16 10:47:52;;;;;;;64.45;12.80;;;22.80;93.10;;;;;;5082989;28;20438;-53
2023/09/16 10:50:18;;;;;;;71.68;12.95;;;22.80;93.20;;;;;;5065602;28;20037;-53
2023/09/16 10:52:55;;;;;;;84.35;14.38;;;22.90;93.30;;;;;;5085119;28;20102;-53
2023/09/16 10:55:53;;;;;;;100.70;14.65;;;22.90;93.20;;;;;;5048865;28;20048;-53
2023/09/16 10:58:27;;;;;;;83.18;12.65;;;22.90;93.10;;;;;;5061724;28;20048;-53
2023/09/16 11:00:56;;;;;;;89.63;12.88;;;23.00;93.10;;;;;;5068895;28;20067;-52
2023/09/16 11:03:30;;;;;;;82.60;12.90;;;23.00;93.00;;;;;;5067957;28;20033;-53
2023/09/16 11:05:57;;;;;;;96.25;12.68;;;23.00;92.90;;;;;;5051394;28;20091;-53
2023/09/16 11:08:24;;;;;;;76.57;13.00;;;23.10;92.90;;;;;;5068884;28;20106;-53
2023/09/16 11:10:49;;;;;;;87.32;13.75;;;23.10;92.90;;;;;;5050380;28;20041;-52
2023/09/16 11:13:15;;;;;;;91.28;11.95;;;23.10;92.80;;;;;;5051127;28;20051;-53
2023/09/16 11:15:41;;;;;;;64.32;12.15;;;23.20;92.80;;;;;;5081106;28;20059;-53
2023/09/16 11:18:10;;;;;;;106.55;14.50;;;23.30;92.70;;;;;;5068884;28;20032;-53
2023/09/16 11:20:39;;;;;;;76.57;13.32;;;23.30;92.70;;;;;;5088371;28;20089;-53
2023/09/16 11:23:05;;;;;;;69.80;13.57;;;23.30;92.70;;;;;;5069904;28;20036;-53
2023/09/16 11:25:32;;;;;;;96.60;14.32;;;23.30;92.60;;;;;;5087046;28;20017;-53
2023/09/16 11:28:00;;;;;;;67.40;12.30;;;23.40;92.50;;;;;;5067986;28;20024;-53
2023/09/16 11:30:25;;;;;;;79.35;13.25;;;23.40;92.10;;;;;;5070634;28;20051;-52
2023/09/16 11:33:08;;;;;;;74.30;12.45;;;23.40;91.70;;;;;;5070653;28;20044;-53
2023/09/16 11:35:36;;;;;;;65.13;11.30;;;23.40;91.70;;;;;;5087788;28;20044;-53
2023/09/16 11:38:01;;;;;;;104.40;14.70;;;23.50;91.70;;;;;;5087389;28;20032;-54
2023/09/16 11:40:27;;;;;;;77.65;12.25;;;23.50;91.60;;;;;;5067357;28;20041;-52
2023/09/16 11:42:57;;;;;;;82.32;11.52;;;23.60;91.60;;;;;;5078805;28;20473;-53
2023/09/16 11:45:23;;;;;;;107.00;14.15;;;23.60;91.60;;;;;;5071533;28;20040;-53
2023/09/16 11:47:49;;;;;;;85.70;13.23;;;23.60;91.50;;;;;;5067750;28;20025;-53
2023/09/16 11:50:22;;;;;;;94.60;15.30;;;23.60;91.50;;;;;;5035959;28;20055;-53
2023/09/16 11:52:48;;;;;;;98.47;14.43;;;23.70;91.30;;;;;;5092311;28;20075;-53
2023/09/16 11:55:15;;;;;;;91.53;15.02;;;23.80;91.10;;;;;;5085356;28;20414;-53
2023/09/16 11:57:41;;;;;;;71.15;13.00;;;23.80;91.00;;;;;;5068312;28;20088;-53
2023/09/16 12:00:10;;;;;;;79.05;11.90;;;23.90;90.80;;;;;;5068809;28;20067;-53
2023/09/16 12:02:35;;;;;;;73.70;12.32;;;23.90;90.70;;;;;;5083963;28;20062;-53
2023/09/16 12:05:03;;;;;;;102.90;15.57;;;23.90;90.40;;;;;;5083505;28;20071;-52
2023/09/16 12:07:32;;;;;;;91.72;13.75;;;24.00;90.40;;;;;;5083985;28;20087;-53
2023/09/16 12:10:07;;;;;;;92.25;11.80;;;24.10;90.30;;;;;;5069376;28;20109;-53
2023/09/16 12:12:32;;;;;;;78.60;14.02;;;24.10;90.10;;;;;;5050068;28;20089;-53
2023/09/16 12:15:02;;;;;;;113.82;16.27;;;24.10;90.20;;;;;;5066695;28;20262;-53
2023/09/16 12:17:28;;;;;;;98.65;14.38;;;24.20;90.10;;;;;;5082886;28;20032;-53
2023/09/16 12:19:55;;;;;;;89.85;14.13;;;24.20;89.90;;;;;;5066981;28;20037;-52
2023/09/16 12:22:20;;;;;;;103.13;15.65;;;24.20;89.40;;;;;;5078269;28;20480;-53
2023/09/16 12:24:46;;;;;;;108.25;15.02;;;24.20;89.10;;;;;;5086841;28;20079;-52
2023/09/16 12:27:12;;;;;;;83.45;13.10;;;24.30;88.70;;;;;;5052624;28;20048;-53
2023/09/16 12:29:38;;;;;;;90.93;13.48;;;24.30;88.20;;;;;;5087308;28;20104;-53
2023/09/16 12:32:10;;;;;;;125.85;17.52;;;24.40;87.90;;;;;;5085852;28;20032;-52